sensor_id;sensor_type;location;lat;lon;timestamp;temperature;humidity
51811;DHT22;52468;40.116;18.296;2023-01-15T00:00:24;7.60;86.70
51811;DHT22;52468;40.116;18.296;2023-01-15T00:02:52;7.60;87.00
51811;DHT22;52468;40.116;18.296;2023-01-15T00:05:20;7.70;86.70
51811;DHT22;52468;40.116;18.296;2023-01-15T00:07:48;7.60;87.00
51811;DHT22;52468;40.116;18.296;2023-01-15T00:10:17;7.70;87.00
51811;DHT22;52468;40.116;18.296;2023-01-15T00:12:45;7.70;86.90
51811;DHT22;52468;40.116;18.296;2023-01-15T00:15:12;7.60;87.00
51811;DHT22;52468;40.116;18.296;2023-01-15T00:17:41;7.70;86.60
51811;DHT22;52468;40.116;18.296;2023-01-15T00:20:09;7.60;86.90
51811;DHT22;52468;40.116;18.296;2023-01-15T00:22:38;7.60;86.70
51811;DHT22;52468;40.116;18.296;2023-01-15T00:25:06;7.60;86.90
51811;DHT22;52468;40.116;18.296;2023-01-15T00:27:53;7.60;87.00
51811;DHT22;52468;40.116;18.296;2023-01-15T00:30:21;7.60;86.80
51811;DHT22;52468;40.116;18.296;2023-01-15T00:32:51;7.60;86.90
51811;DHT22;52468;40.116;18.296;2023-01-15T00:35:22;7.60;86.80
51811;DHT22;52468;40.116;18.296;2023-01-15T00:37:51;7.60;86.90
51811;DHT22;52468;40.116;18.296;2023-01-15T00:40:19;7.60;87.20
51811;DHT22;52468;40.116;18.296;2023-01-15T00:42:47;7.50;87.30
51811;DHT22;52468;40.116;18.296;2023-01-15T00:45:17;7.50;87.40
51811;DHT22;52468;40.116;18.296;2023-01-15T00:47:46;7.60;87.30
51811;DHT22;52468;40.116;18.296;2023-01-15T00:50:17;7.60;87.20
51811;DHT22;52468;40.116;18.296;2023-01-15T00:52:44;7.70;87.40
51811;DHT22;52468;40.116;18.296;2023-01-15T00:55:12;7.60;87.30
51811;DHT22;52468;40.116;18.296;2023-01-15T00:58:03;7.70;87.00
51811;DHT22;52468;40.116;18.296;2023-01-15T01:00:31;7.70;86.70
51811;DHT22;52468;40.116;18.296;2023-01-15T01:02:59;7.60;86.80
51811;DHT22;52468;40.116;18.296;2023-01-15T01:05:30;7.60;86.30
51811;DHT22;52468;40.116;18.296;2023-01-15T01:07:59;7.50;86.40
51811;DHT22;52468;40.116;18.296;2023-01-15T01:10:28;7.50;86.70
51811;DHT22;52468;40.116;18.296;2023-01-15T01:12:56;7.50;86.50
51811;DHT22;52468;40.116;18.296;2023-01-15T01:15:38;7.40;87.00
51811;DHT22;52468;40.116;18.296;2023-01-15T01:18:06;7.30;87.30
51811;DHT22;52468;40.116;18.296;2023-01-15T01:20:34;7.30;87.30
51811;DHT22;52468;40.116;18.296;2023-01-15T01:23:05;7.30;87.30
51811;DHT22;52468;40.116;18.296;2023-01-15T01:25:33;7.40;86.90
51811;DHT22;52468;40.116;18.296;2023-01-15T01:28:01;7.40;87.10
51811;DHT22;52468;40.116;18.296;2023-01-15T01:30:29;7.40;86.80
51811;DHT22;52468;40.116;18.296;2023-01-15T01:32:57;7.30;87.00
51811;DHT22;52468;40.116;18.296;2023-01-15T01:35:25;7.30;86.80
51811;DHT22;52468;40.116;18.296;2023-01-15T01:37:53;7.30;86.90
51811;DHT22;52468;40.116;18.296;2023-01-15T01:40:22;7.20;87.20
51811;DHT22;52468;40.116;18.296;2023-01-15T01:42:50;7.20;87.20
51811;DHT22;52468;40.116;18.296;2023-01-15T01:45:27;7.20;87.00
51811;DHT22;52468;40.116;18.296;2023-01-15T01:48:02;7.20;87.10
51811;DHT22;52468;40.116;18.296;2023-01-15T01:50:32;7.20;86.70
51811;DHT22;52468;40.116;18.296;2023-01-15T01:53:15;7.20;86.30
51811;DHT22;52468;40.116;18.296;2023-01-15T01:55:45;7.10;86.40
51811;DHT22;52468;40.116;18.296;2023-01-15T01:58:14;7.10;86.40
51811;DHT22;52468;40.116;18.296;2023-01-15T02:00:46;7.10;86.00
51811;DHT22;52468;40.116;18.296;2023-01-15T02:03:35;7.00;86.30
51811;DHT22;52468;40.116;18.296;2023-01-15T02:06:07;7.00;86.20
51811;DHT22;52468;40.116;18.296;2023-01-15T02:08:36;6.90;86.80
51811;DHT22;52468;40.116;18.296;2023-01-15T02:11:09;6.90;86.80
51811;DHT22;52468;40.116;18.296;2023-01-15T02:13:40;7.00;86.60
51811;DHT22;52468;40.116;18.296;2023-01-15T02:16:27;7.00;86.30
51811;DHT22;52468;40.116;18.296;2023-01-15T02:19:14;7.00;86.20
51811;DHT22;52468;40.116;18.296;2023-01-15T02:27:19;6.90;86.20
51811;DHT22;52468;40.116;18.296;2023-01-15T02:30:09;6.80;86.40
51811;DHT22;52468;40.116;18.296;2023-01-15T02:33:00;6.80;86.20
51811;DHT22;52468;40.116;18.296;2023-01-15T02:35:37;6.80;86.40
51811;DHT22;52468;40.116;18.296;2023-01-15T02:38:18;6.70;86.10
51811;DHT22;52468;40.116;18.296;2023-01-15T02:40:53;6.70;85.70
51811;DHT22;52468;40.116;18.296;2023-01-15T02:43:23;6.70;85.60
51811;DHT22;52468;40.116;18.296;2023-01-15T02:45:55;6.60;85.70
51811;DHT22;52468;40.116;18.296;2023-01-15T02:48:29;6.60;85.80
51811;DHT22;52468;40.116;18.296;2023-01-15T02:51:11;6.60;85.60
51811;DHT22;52468;40.116;18.296;2023-01-15T02:53:43;6.60;85.70
51811;DHT22;52468;40.116;18.296;2023-01-15T02:56:20;6.50;85.50
51811;DHT22;52468;40.116;18.296;2023-01-15T02:58:55;6.60;85.40
51811;DHT22;52468;40.116;18.296;2023-01-15T03:01:41;6.60;85.80
51811;DHT22;52468;40.116;18.296;2023-01-15T03:04:24;6.50;85.20
51811;DHT22;52468;40.116;18.296;2023-01-15T03:09:34;6.50;85.80
51811;DHT22;52468;40.116;18.296;2023-01-15T03:12:29;6.40;86.10
51811;DHT22;52468;40.116;18.296;2023-01-15T03:15:07;6.50;86.00
51811;DHT22;52468;40.116;18.296;2023-01-15T03:17:53;6.50;86.00
51811;DHT22;52468;40.116;18.296;2023-01-15T03:20:27;6.40;85.40
51811;DHT22;52468;40.116;18.296;2023-01-15T03:22:59;6.40;85.90
51811;DHT22;52468;40.116;18.296;2023-01-15T03:25:36;6.40;86.00
51811;DHT22;52468;40.116;18.296;2023-01-15T03:28:07;6.30;86.10
51811;DHT22;52468;40.116;18.296;2023-01-15T03:30:37;6.30;86.20
51811;DHT22;52468;40.116;18.296;2023-01-15T03:33:06;6.30;85.80
51811;DHT22;52468;40.116;18.296;2023-01-15T03:38:08;6.30;85.40
51811;DHT22;52468;40.116;18.296;2023-01-15T03:40:43;6.30;85.40
51811;DHT22;52468;40.116;18.296;2023-01-15T03:43:19;6.20;85.30
51811;DHT22;52468;40.116;18.296;2023-01-15T03:46:25;6.20;85.70
51811;DHT22;52468;40.116;18.296;2023-01-15T03:54:32;6.30;86.60
51811;DHT22;52468;40.116;18.296;2023-01-15T03:57:12;6.30;86.80
51811;DHT22;52468;40.116;18.296;2023-01-15T04:02:43;6.30;86.70
51811;DHT22;52468;40.116;18.296;2023-01-15T04:05:15;6.40;86.80
51811;DHT22;52468;40.116;18.296;2023-01-15T04:07:47;6.40;86.30
51811;DHT22;52468;40.116;18.296;2023-01-15T04:10:17;6.40;86.40
51811;DHT22;52468;40.116;18.296;2023-01-15T04:12:47;6.40;86.40
51811;DHT22;52468;40.116;18.296;2023-01-15T04:15:17;6.30;86.50
51811;DHT22;52468;40.116;18.296;2023-01-15T04:17:45;6.30;86.60
51811;DHT22;52468;40.116;18.296;2023-01-15T04:20:14;6.30;86.80
51811;DHT22;52468;40.116;18.296;2023-01-15T04:22:44;6.30;86.80
51811;DHT22;52468;40.116;18.296;2023-01-15T04:25:12;6.40;86.40
51811;DHT22;52468;40.116;18.296;2023-01-15T04:27:40;6.30;86.60
51811;DHT22;52468;40.116;18.296;2023-01-15T04:30:08;6.40;86.60
51811;DHT22;52468;40.116;18.296;2023-01-15T04:32:36;6.30;86.80
51811;DHT22;52468;40.116;18.296;2023-01-15T04:35:04;6.30;86.80
51811;DHT22;52468;40.116;18.296;2023-01-15T04:37:42;6.30;86.70
51811;DHT22;52468;40.116;18.296;2023-01-15T04:40:11;6.30;86.60
51811;DHT22;52468;40.116;18.296;2023-01-15T04:42:57;6.30;86.90
51811;DHT22;52468;40.116;18.296;2023-01-15T04:45:44;6.30;87.20
51811;DHT22;52468;40.116;18.296;2023-01-15T04:48:12;6.30;87.10
51811;DHT22;52468;40.116;18.296;2023-01-15T04:50:53;6.30;87.10
51811;DHT22;52468;40.116;18.296;2023-01-15T04:53:21;6.30;87.10
51811;DHT22;52468;40.116;18.296;2023-01-15T04:55:49;6.30;86.90
51811;DHT22;52468;40.116;18.296;2023-01-15T04:58:17;6.30;86.70
51811;DHT22;52468;40.116;18.296;2023-01-15T05:00:45;6.40;86.50
51811;DHT22;52468;40.116;18.296;2023-01-15T05:03:13;6.20;86.60
51811;DHT22;52468;40.116;18.296;2023-01-15T05:05:41;6.20;86.80
51811;DHT22;52468;40.116;18.296;2023-01-15T05:08:09;6.10;86.90
51811;DHT22;52468;40.116;18.296;2023-01-15T05:10:36;6.20;86.40
51811;DHT22;52468;40.116;18.296;2023-01-15T05:13:04;6.10;86.40
51811;DHT22;52468;40.116;18.296;2023-01-15T05:15:32;6.10;86.30
51811;DHT22;52468;40.116;18.296;2023-01-15T05:18:00;6.10;86.10
51811;DHT22;52468;40.116;18.296;2023-01-15T05:20:28;6.00;85.80
51811;DHT22;52468;40.116;18.296;2023-01-15T05:22:56;6.00;86.00
51811;DHT22;52468;40.116;18.296;2023-01-15T05:25:44;6.00;85.60
51811;DHT22;52468;40.116;18.296;2023-01-15T05:28:12;5.90;85.90
51811;DHT22;52468;40.116;18.296;2023-01-15T05:30:40;5.90;85.40
51811;DHT22;52468;40.116;18.296;2023-01-15T05:33:08;5.90;86.00
51811;DHT22;52468;40.116;18.296;2023-01-15T05:35:35;5.90;85.60
51811;DHT22;52468;40.116;18.296;2023-01-15T05:38:03;5.80;86.40
51811;DHT22;52468;40.116;18.296;2023-01-15T05:40:33;5.80;86.30
51811;DHT22;52468;40.116;18.296;2023-01-15T05:43:01;5.80;86.60
51811;DHT22;52468;40.116;18.296;2023-01-15T05:45:28;5.80;86.40
51811;DHT22;52468;40.116;18.296;2023-01-15T05:47:56;5.80;86.80
51811;DHT22;52468;40.116;18.296;2023-01-15T05:50:24;5.80;86.70
51811;DHT22;52468;40.116;18.296;2023-01-15T05:52:54;5.80;87.00
51811;DHT22;52468;40.116;18.296;2023-01-15T05:55:22;5.80;86.60
51811;DHT22;52468;40.116;18.296;2023-01-15T05:57:50;5.90;86.80
51811;DHT22;52468;40.116;18.296;2023-01-15T06:00:18;5.90;87.00
51811;DHT22;52468;40.116;18.296;2023-01-15T06:02:49;6.00;86.80
51811;DHT22;52468;40.116;18.296;2023-01-15T06:05:17;6.00;86.80
51811;DHT22;52468;40.116;18.296;2023-01-15T06:07:48;6.00;86.60
51811;DHT22;52468;40.116;18.296;2023-01-15T06:10:16;6.00;86.50
51811;DHT22;52468;40.116;18.296;2023-01-15T06:12:44;6.00;86.60
51811;DHT22;52468;40.116;18.296;2023-01-15T06:15:12;5.90;86.80
51811;DHT22;52468;40.116;18.296;2023-01-15T06:17:40;5.90;86.90
51811;DHT22;52468;40.116;18.296;2023-01-15T06:20:08;6.00;86.70
51811;DHT22;52468;40.116;18.296;2023-01-15T06:22:36;6.10;86.60
51811;DHT22;52468;40.116;18.296;2023-01-15T06:25:05;6.20;86.80
51811;DHT22;52468;40.116;18.296;2023-01-15T06:27:33;6.20;87.10
51811;DHT22;52468;40.116;18.296;2023-01-15T06:30:01;6.30;86.90
51811;DHT22;52468;40.116;18.296;2023-01-15T06:32:29;6.50;86.70
51811;DHT22;52468;40.116;18.296;2023-01-15T06:34:57;6.50;86.60
51811;DHT22;52468;40.116;18.296;2023-01-15T06:37:24;6.50;86.80
51811;DHT22;52468;40.116;18.296;2023-01-15T06:39:52;6.50;87.20
51811;DHT22;52468;40.116;18.296;2023-01-15T06:42:20;6.70;87.20
51811;DHT22;52468;40.116;18.296;2023-01-15T06:45:11;6.90;86.50
51811;DHT22;52468;40.116;18.296;2023-01-15T06:47:57;7.00;86.60
51811;DHT22;52468;40.116;18.296;2023-01-15T06:50:25;7.00;86.50
51811;DHT22;52468;40.116;18.296;2023-01-15T06:52:53;7.10;86.80
51811;DHT22;52468;40.116;18.296;2023-01-15T06:55:21;7.20;86.70
51811;DHT22;52468;40.116;18.296;2023-01-15T06:57:50;7.20;86.50
51811;DHT22;52468;40.116;18.296;2023-01-15T07:00:24;7.40;87.00
51811;DHT22;52468;40.116;18.296;2023-01-15T07:02:52;7.50;86.30
51811;DHT22;52468;40.116;18.296;2023-01-15T07:05:20;7.50;86.80
51811;DHT22;52468;40.116;18.296;2023-01-15T07:07:48;7.60;86.60
51811;DHT22;52468;40.116;18.296;2023-01-15T07:10:16;7.70;86.40
51811;DHT22;52468;40.116;18.296;2023-01-15T07:12:44;7.80;86.40
51811;DHT22;52468;40.116;18.296;2023-01-15T07:15:12;8.00;86.50
51811;DHT22;52468;40.116;18.296;2023-01-15T07:17:39;8.00;86.30
51811;DHT22;52468;40.116;18.296;2023-01-15T07:20:08;8.10;86.10
51811;DHT22;52468;40.116;18.296;2023-01-15T07:22:36;8.20;86.20
51811;DHT22;52468;40.116;18.296;2023-01-15T07:25:04;8.30;86.30
51811;DHT22;52468;40.116;18.296;2023-01-15T07:27:32;8.40;86.20
51811;DHT22;52468;40.116;18.296;2023-01-15T07:30:00;8.50;86.50
51811;DHT22;52468;40.116;18.296;2023-01-15T07:32:28;8.60;86.30
51811;DHT22;52468;40.116;18.296;2023-01-15T07:34:56;8.80;86.30
51811;DHT22;52468;40.116;18.296;2023-01-15T07:37:24;8.90;86.40
51811;DHT22;52468;40.116;18.296;2023-01-15T07:39:54;9.00;86.60
51811;DHT22;52468;40.116;18.296;2023-01-15T07:42:23;9.10;86.30
51811;DHT22;52468;40.116;18.296;2023-01-15T07:45:11;9.20;86.20
51811;DHT22;52468;40.116;18.296;2023-01-15T07:47:57;9.30;86.40
51811;DHT22;52468;40.116;18.296;2023-01-15T07:50:43;9.50;86.40
51811;DHT22;52468;40.116;18.296;2023-01-15T07:53:11;9.60;86.50
51811;DHT22;52468;40.116;18.296;2023-01-15T07:55:39;9.70;86.10
51811;DHT22;52468;40.116;18.296;2023-01-15T07:58:10;9.80;86.40
51811;DHT22;52468;40.116;18.296;2023-01-15T08:00:38;10.00;86.50
51811;DHT22;52468;40.116;18.296;2023-01-15T08:03:08;10.10;86.50
51811;DHT22;52468;40.116;18.296;2023-01-15T08:05:39;10.20;86.00
51811;DHT22;52468;40.116;18.296;2023-01-15T08:08:16;10.30;86.10
51811;DHT22;52468;40.116;18.296;2023-01-15T08:10:45;10.30;86.00
51811;DHT22;52468;40.116;18.296;2023-01-15T08:13:31;10.50;86.50
51811;DHT22;52468;40.116;18.296;2023-01-15T08:16:17;10.50;86.70
51811;DHT22;52468;40.116;18.296;2023-01-15T08:18:45;10.70;86.10
51811;DHT22;52468;40.116;18.296;2023-01-15T08:21:14;10.70;86.30
51811;DHT22;52468;40.116;18.296;2023-01-15T08:23:43;10.80;86.60
51811;DHT22;52468;40.116;18.296;2023-01-15T08:26:12;11.00;86.80
51811;DHT22;52468;40.116;18.296;2023-01-15T08:28:40;11.10;86.30
51811;DHT22;52468;40.116;18.296;2023-01-15T08:31:08;11.20;86.70
51811;DHT22;52468;40.116;18.296;2023-01-15T08:33:36;11.30;86.70
51811;DHT22;52468;40.116;18.296;2023-01-15T08:36:07;11.50;86.60
51811;DHT22;52468;40.116;18.296;2023-01-15T08:38:35;11.50;86.20
51811;DHT22;52468;40.116;18.296;2023-01-15T08:41:03;11.60;86.10
51811;DHT22;52468;40.116;18.296;2023-01-15T08:43:32;11.90;86.30
51811;DHT22;52468;40.116;18.296;2023-01-15T08:46:20;12.00;86.20
51811;DHT22;52468;40.116;18.296;2023-01-15T08:49:02;12.10;85.90
51811;DHT22;52468;40.116;18.296;2023-01-15T08:51:32;12.20;85.80
51811;DHT22;52468;40.116;18.296;2023-01-15T08:54:00;12.30;85.60
51811;DHT22;52468;40.116;18.296;2023-01-15T08:56:28;12.40;84.70
51811;DHT22;52468;40.116;18.296;2023-01-15T08:58:57;12.50;85.10
51811;DHT22;52468;40.116;18.296;2023-01-15T09:01:25;12.50;84.00
51811;DHT22;52468;40.116;18.296;2023-01-15T09:03:53;12.70;84.80
51811;DHT22;52468;40.116;18.296;2023-01-15T09:06:21;12.80;84.30
51811;DHT22;52468;40.116;18.296;2023-01-15T09:08:49;12.80;84.00
51811;DHT22;52468;40.116;18.296;2023-01-15T09:11:17;12.90;83.30
51811;DHT22;52468;40.116;18.296;2023-01-15T09:13:46;13.10;84.10
51811;DHT22;52468;40.116;18.296;2023-01-15T09:16:15;13.20;84.30
51811;DHT22;52468;40.116;18.296;2023-01-15T09:18:44;13.40;83.30
51811;DHT22;52468;40.116;18.296;2023-01-15T09:21:12;13.50;82.80
51811;DHT22;52468;40.116;18.296;2023-01-15T09:23:40;13.60;82.70
51811;DHT22;52468;40.116;18.296;2023-01-15T09:26:26;13.70;83.00
51811;DHT22;52468;40.116;18.296;2023-01-15T09:28:56;13.80;82.30
51811;DHT22;52468;40.116;18.296;2023-01-15T09:31:24;14.00;81.40
51811;DHT22;52468;40.116;18.296;2023-01-15T09:33:55;14.00;80.60
51811;DHT22;52468;40.116;18.296;2023-01-15T09:38:57;14.10;80.00
51811;DHT22;52468;40.116;18.296;2023-01-15T09:41:37;14.20;80.10
51811;DHT22;52468;40.116;18.296;2023-01-15T09:51:01;14.20;77.70
51811;DHT22;52468;40.116;18.296;2023-01-15T09:54:05;14.30;75.40
51811;DHT22;52468;40.116;18.296;2023-01-15T09:56:38;14.40;78.40
51811;DHT22;52468;40.116;18.296;2023-01-15T10:01:49;14.50;76.60
51811;DHT22;52468;40.116;18.296;2023-01-15T10:07:08;14.70;75.50
51811;DHT22;52468;40.116;18.296;2023-01-15T10:09:39;14.90;78.20
51811;DHT22;52468;40.116;18.296;2023-01-15T10:12:20;14.90;76.10
51811;DHT22;52468;40.116;18.296;2023-01-15T10:17:42;15.00;71.60
51811;DHT22;52468;40.116;18.296;2023-01-15T10:23:13;14.90;70.70
51811;DHT22;52468;40.116;18.296;2023-01-15T10:26:05;15.00;70.80
51811;DHT22;52468;40.116;18.296;2023-01-15T10:29:18;15.10;74.90
51811;DHT22;52468;40.116;18.296;2023-01-15T10:45:54;15.40;71.00
51811;DHT22;52468;40.116;18.296;2023-01-15T10:48:33;15.50;69.10
51811;DHT22;52468;40.116;18.296;2023-01-15T10:51:23;15.40;68.80
51811;DHT22;52468;40.116;18.296;2023-01-15T10:53:57;15.50;67.20
51811;DHT22;52468;40.116;18.296;2023-01-15T10:59:22;15.60;69.50
51811;DHT22;52468;40.116;18.296;2023-01-15T11:01:53;15.60;66.20
51811;DHT22;52468;40.116;18.296;2023-01-15T11:04:22;15.60;65.60
51811;DHT22;52468;40.116;18.296;2023-01-15T11:06:50;15.70;66.30
51811;DHT22;52468;40.116;18.296;2023-01-15T11:09:20;15.90;68.40
51811;DHT22;52468;40.116;18.296;2023-01-15T11:11:52;16.00;67.90
51811;DHT22;52468;40.116;18.296;2023-01-15T11:14:41;15.90;61.30
51811;DHT22;52468;40.116;18.296;2023-01-15T11:17:45;15.80;61.80
51811;DHT22;52468;40.116;18.296;2023-01-15T11:20:43;15.80;64.00
51811;DHT22;52468;40.116;18.296;2023-01-15T11:23:18;15.80;63.20
51811;DHT22;52468;40.116;18.296;2023-01-15T11:25:55;15.80;62.90
51811;DHT22;52468;40.116;18.296;2023-01-15T11:28:53;15.70;60.10
51811;DHT22;52468;40.116;18.296;2023-01-15T11:31:22;15.70;61.00
51811;DHT22;52468;40.116;18.296;2023-01-15T11:36:27;15.90;63.20
51811;DHT22;52468;40.116;18.296;2023-01-15T11:38:56;16.00;63.00
51811;DHT22;52468;40.116;18.296;2023-01-15T11:41:28;16.00;61.00
51811;DHT22;52468;40.116;18.296;2023-01-15T11:44:17;16.10;61.70
51811;DHT22;52468;40.116;18.296;2023-01-15T11:47:13;16.10;63.30
51811;DHT22;52468;40.116;18.296;2023-01-15T11:50:00;16.20;62.40
51811;DHT22;52468;40.116;18.296;2023-01-15T11:52:54;16.20;61.00
51811;DHT22;52468;40.116;18.296;2023-01-15T11:55:25;16.30;58.70
51811;DHT22;52468;40.116;18.296;2023-01-15T11:57:54;16.40;58.10
51811;DHT22;52468;40.116;18.296;2023-01-15T12:00:28;16.40;58.70
51811;DHT22;52468;40.116;18.296;2023-01-15T12:02:58;16.30;58.10
51811;DHT22;52468;40.116;18.296;2023-01-15T12:05:30;16.30;58.10
51811;DHT22;52468;40.116;18.296;2023-01-15T12:08:02;16.40;58.20
51811;DHT22;52468;40.116;18.296;2023-01-15T12:10:38;16.40;59.40
51811;DHT22;52468;40.116;18.296;2023-01-15T12:13:52;16.60;59.30
51811;DHT22;52468;40.116;18.296;2023-01-15T12:16:45;16.70;58.20
51811;DHT22;52468;40.116;18.296;2023-01-15T12:23:03;16.40;53.40
51811;DHT22;52468;40.116;18.296;2023-01-15T12:25:36;16.20;55.10
51811;DHT22;52468;40.116;18.296;2023-01-15T12:28:12;16.20;54.40
51811;DHT22;52468;40.116;18.296;2023-01-15T12:31:13;16.30;54.90
51811;DHT22;52468;40.116;18.296;2023-01-15T12:36:30;16.20;55.20
51811;DHT22;52468;40.116;18.296;2023-01-15T12:39:04;16.10;52.40
51811;DHT22;52468;40.116;18.296;2023-01-15T12:41:34;16.00;53.00
51811;DHT22;52468;40.116;18.296;2023-01-15T12:44:43;16.10;53.00
51811;DHT22;52468;40.116;18.296;2023-01-15T12:50:38;16.30;53.00
51811;DHT22;52468;40.116;18.296;2023-01-15T12:53:31;16.40;52.90
51811;DHT22;52468;40.116;18.296;2023-01-15T13:04:47;16.40;52.40
51811;DHT22;52468;40.116;18.296;2023-01-15T13:07:27;16.50;52.30
51811;DHT22;52468;40.116;18.296;2023-01-15T13:12:44;16.40;51.00
51811;DHT22;52468;40.116;18.296;2023-01-15T13:15:17;16.30;51.10
51811;DHT22;52468;40.116;18.296;2023-01-15T13:18:13;16.20;50.80
51811;DHT22;52468;40.116;18.296;2023-01-15T13:20:49;16.20;50.90
51811;DHT22;52468;40.116;18.296;2023-01-15T13:29:00;16.10;49.60
51811;DHT22;52468;40.116;18.296;2023-01-15T13:34:52;16.00;50.20
51811;DHT22;52468;40.116;18.296;2023-01-15T13:37:28;15.90;48.80
51811;DHT22;52468;40.116;18.296;2023-01-15T13:40:02;15.90;49.20
51811;DHT22;52468;40.116;18.296;2023-01-15T13:42:31;15.90;49.20
51811;DHT22;52468;40.116;18.296;2023-01-15T13:47:49;16.00;48.60
51811;DHT22;52468;40.116;18.296;2023-01-15T13:50:30;15.90;48.10
51811;DHT22;52468;40.116;18.296;2023-01-15T13:53:49;16.00;48.30
51811;DHT22;52468;40.116;18.296;2023-01-15T13:58:38;15.80;49.30
51811;DHT22;52468;40.116;18.296;2023-01-15T14:01:08;15.60;49.90
51811;DHT22;52468;40.116;18.296;2023-01-15T14:06:42;15.50;50.60
51811;DHT22;52468;40.116;18.296;2023-01-15T14:14:47;15.40;50.40
51811;DHT22;52468;40.116;18.296;2023-01-15T14:34:28;15.10;51.40
51811;DHT22;52468;40.116;18.296;2023-01-15T14:37:03;15.00;51.00
51811;DHT22;52468;40.116;18.296;2023-01-15T14:42:37;14.80;51.30
51811;DHT22;52468;40.116;18.296;2023-01-15T14:45:27;14.60;51.90
51811;DHT22;52468;40.116;18.296;2023-01-15T14:48:01;14.40;52.10
51811;DHT22;52468;40.116;18.296;2023-01-15T14:50:37;14.40;52.20
51811;DHT22;52468;40.116;18.296;2023-01-15T15:01:29;14.10;52.30
51811;DHT22;52468;40.116;18.296;2023-01-15T15:04:04;13.90;53.10
51811;DHT22;52468;40.116;18.296;2023-01-15T15:06:45;13.80;53.60
51811;DHT22;52468;40.116;18.296;2023-01-15T15:09:24;13.60;53.90
51811;DHT22;52468;40.116;18.296;2023-01-15T15:11:54;13.50;54.30
51811;DHT22;52468;40.116;18.296;2023-01-15T15:26:22;13.00;57.20
51811;DHT22;52468;40.116;18.296;2023-01-15T15:29:26;13.00;58.30
51811;DHT22;52468;40.116;18.296;2023-01-15T15:31:56;12.80;59.80
51811;DHT22;52468;40.116;18.296;2023-01-15T15:34:30;12.70;60.90
51811;DHT22;52468;40.116;18.296;2023-01-15T15:40:02;12.50;62.50
51811;DHT22;52468;40.116;18.296;2023-01-15T15:42:32;12.30;63.50
51811;DHT22;52468;40.116;18.296;2023-01-15T15:45:26;12.20;64.20
51811;DHT22;52468;40.116;18.296;2023-01-15T15:54:22;11.60;66.40
51811;DHT22;52468;40.116;18.296;2023-01-15T15:57:12;11.50;67.30
51811;DHT22;52468;40.116;18.296;2023-01-15T15:59:49;11.40;67.30
51811;DHT22;52468;40.116;18.296;2023-01-15T16:05:29;11.30;68.90
51811;DHT22;52468;40.116;18.296;2023-01-15T16:10:46;11.00;69.90
51811;DHT22;52468;40.116;18.296;2023-01-15T16:15:56;10.90;71.00
51811;DHT22;52468;40.116;18.296;2023-01-15T16:18:25;10.80;71.20
51811;DHT22;52468;40.116;18.296;2023-01-15T16:20:55;10.80;71.20
51811;DHT22;52468;40.116;18.296;2023-01-15T16:23:26;10.60;71.60
51811;DHT22;52468;40.116;18.296;2023-01-15T16:26:18;10.60;72.20
51811;DHT22;52468;40.116;18.296;2023-01-15T16:28:53;10.50;72.10
51811;DHT22;52468;40.116;18.296;2023-01-15T16:31:23;10.50;72.40
51811;DHT22;52468;40.116;18.296;2023-01-15T16:33:57;10.40;72.90
51811;DHT22;52468;40.116;18.296;2023-01-15T16:36:27;10.30;72.90
51811;DHT22;52468;40.116;18.296;2023-01-15T16:38:55;10.30;73.50
51811;DHT22;52468;40.116;18.296;2023-01-15T16:41:28;10.30;73.80
51811;DHT22;52468;40.116;18.296;2023-01-15T16:44:04;10.20;73.30
51811;DHT22;52468;40.116;18.296;2023-01-15T16:46:35;10.20;73.70
51811;DHT22;52468;40.116;18.296;2023-01-15T16:49:25;10.10;74.00
51811;DHT22;52468;40.116;18.296;2023-01-15T16:51:54;10.00;74.50
51811;DHT22;52468;40.116;18.296;2023-01-15T16:57:02;10.00;74.50
51811;DHT22;52468;40.116;18.296;2023-01-15T17:02:16;9.90;74.80
51811;DHT22;52468;40.116;18.296;2023-01-15T17:04:47;9.80;74.90
51811;DHT22;52468;40.116;18.296;2023-01-15T17:09:56;9.80;75.40
51811;DHT22;52468;40.116;18.296;2023-01-15T17:12:41;9.80;75.50
51811;DHT22;52468;40.116;18.296;2023-01-15T17:17:54;9.70;75.50
51811;DHT22;52468;40.116;18.296;2023-01-15T17:20:23;9.60;75.80
51811;DHT22;52468;40.116;18.296;2023-01-15T17:22:55;9.60;75.70
51811;DHT22;52468;40.116;18.296;2023-01-15T17:28:11;9.50;75.80
51811;DHT22;52468;40.116;18.296;2023-01-15T17:30:39;9.50;76.10
51811;DHT22;52468;40.116;18.296;2023-01-15T17:33:09;9.50;76.50
51811;DHT22;52468;40.116;18.296;2023-01-15T17:35:39;9.50;76.40
51811;DHT22;52468;40.116;18.296;2023-01-15T17:38:12;9.40;76.50
51811;DHT22;52468;40.116;18.296;2023-01-15T17:40:40;9.40;76.70
51811;DHT22;52468;40.116;18.296;2023-01-15T17:43:13;9.30;76.80
51811;DHT22;52468;40.116;18.296;2023-01-15T17:45:42;9.30;77.30
51811;DHT22;52468;40.116;18.296;2023-01-15T17:48:10;9.30;77.30
51811;DHT22;52468;40.116;18.296;2023-01-15T17:50:40;9.40;77.50
51811;DHT22;52468;40.116;18.296;2023-01-15T17:53:08;9.40;77.40
51811;DHT22;52468;40.116;18.296;2023-01-15T17:55:36;9.40;77.20
51811;DHT22;52468;40.116;18.296;2023-01-15T17:58:22;9.30;77.10
51811;DHT22;52468;40.116;18.296;2023-01-15T18:01:20;9.30;77.30
51811;DHT22;52468;40.116;18.296;2023-01-15T18:04:17;9.30;77.00
51811;DHT22;52468;40.116;18.296;2023-01-15T18:07:04;9.20;77.10
51811;DHT22;52468;40.116;18.296;2023-01-15T18:09:34;9.20;77.10
51811;DHT22;52468;40.116;18.296;2023-01-15T18:12:02;9.20;77.00
51811;DHT22;52468;40.116;18.296;2023-01-15T18:14:31;9.10;77.50
51811;DHT22;52468;40.116;18.296;2023-01-15T18:16:59;9.10;77.40
51811;DHT22;52468;40.116;18.296;2023-01-15T18:19:28;9.10;77.40
51811;DHT22;52468;40.116;18.296;2023-01-15T18:21:56;9.10;77.60
51811;DHT22;52468;40.116;18.296;2023-01-15T18:24:24;9.10;77.80
51811;DHT22;52468;40.116;18.296;2023-01-15T18:26:52;9.20;78.00
51811;DHT22;52468;40.116;18.296;2023-01-15T18:29:20;9.20;77.90
51811;DHT22;52468;40.116;18.296;2023-01-15T18:31:48;9.30;77.90
51811;DHT22;52468;40.116;18.296;2023-01-15T18:34:16;9.20;78.00
51811;DHT22;52468;40.116;18.296;2023-01-15T18:36:44;9.30;77.70
51811;DHT22;52468;40.116;18.296;2023-01-15T18:39:12;9.30;77.70
51811;DHT22;52468;40.116;18.296;2023-01-15T18:41:40;9.30;77.70
51811;DHT22;52468;40.116;18.296;2023-01-15T18:44:17;9.30;77.60
51811;DHT22;52468;40.116;18.296;2023-01-15T18:47:07;9.30;77.60
51811;DHT22;52468;40.116;18.296;2023-01-15T18:49:45;9.30;77.40
51811;DHT22;52468;40.116;18.296;2023-01-15T18:52:15;9.30;77.40
51811;DHT22;52468;40.116;18.296;2023-01-15T18:55:01;9.30;77.50
51811;DHT22;52468;40.116;18.296;2023-01-15T18:57:31;9.20;77.20
51811;DHT22;52468;40.116;18.296;2023-01-15T19:00:00;9.20;77.20